createdAt,value
2019-03-21T00:00:49.506Z,100150.80
2019-03-21T00:03:00.032Z,100144.85
2019-03-21T00:05:52.498Z,100146.16
2019-03-21T00:08:44.964Z,100142.75
2019-03-21T00:11:35.492Z,100148.75
2019-03-21T00:13:46.301Z,100141.91
2019-03-21T00:16:38.807Z,100145.72
2019-03-21T00:18:49.631Z,100147.81
2019-03-21T00:21:00.452Z,100147.30
2019-03-21T00:23:11.357Z,100151.10
2019-03-21T00:26:03.932Z,100151.09
2019-03-21T00:28:14.706Z,100146.42
2019-03-21T00:31:07.198Z,100158.42
2019-03-21T00:33:18.010Z,100155.48
2019-03-21T00:35:28.966Z,100148.27
2019-03-21T00:37:39.761Z,100153.39
2019-03-21T00:39:50.591Z,100150.84
2019-03-21T00:42:01.401Z,100154.67
2019-03-21T00:44:18.020Z,100151.20
2019-03-21T00:46:24.911Z,100146.41
2019-03-21T00:48:35.725Z,100151.47
2019-03-21T00:51:06.472Z,100157.38
2019-03-21T00:53:17.341Z,100157.38
2019-03-21T00:56:09.815Z,100155.25
2019-03-21T00:58:20.604Z,100150.94
2019-03-21T01:01:13.076Z,100153.83
2019-03-21T01:03:24.075Z,100156.39
2019-03-21T01:05:34.875Z,100150.84
2019-03-21T01:07:45.894Z,100152.47
2019-03-21T01:09:56.695Z,100149.48
2019-03-21T01:12:07.606Z,100149.44
2019-03-21T01:14:29.206Z,100149.44
2019-03-21T01:16:31.146Z,100154.98
2019-03-21T01:19:23.616Z,100154.12
2019-03-21T01:21:34.434Z,100148.19
2019-03-21T01:23:45.241Z,100153.70
2019-03-21T01:26:37.735Z,100142.61
2019-03-21T01:28:48.521Z,100145.11
2019-03-21T01:30:59.326Z,100144.31
2019-03-21T01:33:10.138Z,100144.26
2019-03-21T01:35:20.967Z,100137.41
2019-03-21T01:37:31.876Z,100139.97
2019-03-21T01:39:42.735Z,100142.47
2019-03-21T01:41:53.588Z,100136.41
2019-03-21T01:44:04.414Z,100135.52
2019-03-21T01:46:56.886Z,100139.33
2019-03-21T01:49:07.685Z,100138.44
2019-03-21T01:51:18.607Z,100133.75
2019-03-21T01:53:29.431Z,100127.39
2019-03-21T01:55:40.240Z,100130.41
2019-03-21T01:57:51.057Z,100130.00
2019-03-21T02:00:43.525Z,100129.19
2019-03-21T02:03:35.995Z,100123.20
2019-03-21T02:05:46.822Z,100120.22
2019-03-21T02:07:57.661Z,100123.23
2019-03-21T02:10:50.119Z,100124.09
2019-03-21T02:13:00.932Z,100118.97
2019-03-21T02:15:53.398Z,100113.42
2019-03-21T02:18:45.859Z,100112.09
2019-03-21T02:20:56.666Z,100109.05
2019-03-21T02:23:07.467Z,100113.73
2019-03-21T02:25:39.181Z,100115.90
2019-03-21T02:27:50.100Z,100110.78
2019-03-21T02:30:00.951Z,100116.66
2019-03-21T02:32:11.749Z,100109.74
2019-03-21T02:34:22.586Z,100113.55
2019-03-21T02:36:33.402Z,100114.01
2019-03-21T02:38:44.217Z,100111.87
2019-03-21T02:41:36.685Z,100122.53
2019-03-21T02:43:47.508Z,100113.12
2019-03-21T02:45:58.344Z,100112.56
2019-03-21T02:48:09.188Z,100111.21
2019-03-21T02:51:01.671Z,100106.48
2019-03-21T02:53:12.475Z,100110.67
2019-03-21T02:56:04.940Z,100107.77
2019-03-21T02:58:15.841Z,100110.78
2019-03-21T03:01:08.297Z,100106.48
2019-03-21T03:03:19.124Z,100111.64
2019-03-21T03:06:11.666Z,100106.95
2019-03-21T03:08:22.478Z,100107.84
2019-03-21T03:10:53.668Z,100104.78
2019-03-21T03:13:04.555Z,100108.55
2019-03-21T03:15:35.646Z,100115.29
2019-03-21T03:17:46.542Z,100101.65
2019-03-21T03:19:57.361Z,100108.89
2019-03-21T03:22:08.161Z,100109.78
2019-03-21T03:25:00.637Z,100112.41
2019-03-21T03:27:11.532Z,100109.86
2019-03-21T03:29:22.353Z,100106.06
2019-03-21T03:31:33.167Z,100107.34
2019-03-21T03:33:43.977Z,100111.17
2019-03-21T03:35:54.872Z,100107.34
2019-03-21T03:38:05.596Z,100105.56
2019-03-21T03:40:58.080Z,100101.61
2019-03-21T03:43:08.868Z,100103.70
2019-03-21T03:46:01.347Z,100103.97
2019-03-21T03:48:12.252Z,100110.79
2019-03-21T03:50:23.062Z,100105.25
2019-03-21T03:52:33.903Z,100109.89
2019-03-21T03:54:44.677Z,100109.08
2019-03-21T03:56:55.497Z,100112.91
2019-03-21T03:59:47.938Z,100115.47
2019-03-21T04:01:58.761Z,100109.93
2019-03-21T04:04:09.714Z,100107.34
2019-03-21T04:06:20.612Z,100111.59
2019-03-21T04:08:31.505Z,100114.53
2019-03-21T04:11:24.001Z,100107.21
2019-03-21T04:13:34.799Z,100114.02
2019-03-21T04:15:52.429Z,100108.06
2019-03-21T04:17:58.534Z,100111.43
2019-03-21T04:20:50.977Z,100108.88
2019-03-21T04:23:01.905Z,100105.41
2019-03-21T04:25:54.366Z,100099.84
2019-03-21T04:28:05.181Z,100098.61
2019-03-21T04:30:35.922Z,100104.44
2019-03-21T04:32:46.728Z,100102.30
2019-03-21T04:34:57.533Z,100101.50
2019-03-21T04:37:08.382Z,100099.84
2019-03-21T04:39:19.185Z,100101.96
2019-03-21T04:41:29.980Z,100098.14
2019-03-21T04:43:40.805Z,100102.06
2019-03-21T04:46:02.556Z,100099.97
2019-03-21T04:48:04.419Z,100095.71
2019-03-21T04:50:54.966Z,100095.80
2019-03-21T04:53:05.782Z,100096.27
2019-03-21T04:55:16.578Z,100092.01
2019-03-21T04:57:27.364Z,100103.12
2019-03-21T04:59:38.219Z,100106.95
2019-03-21T05:01:49.024Z,100106.10
2019-03-21T05:03:59.866Z,100112.11
2019-03-21T05:06:10.669Z,100107.42
2019-03-21T05:08:21.507Z,100106.48
2019-03-21T05:10:32.309Z,100107.16
2019-03-21T05:12:43.109Z,100104.86
2019-03-21T05:14:53.925Z,100105.52
2019-03-21T05:17:04.712Z,100109.83
2019-03-21T05:19:15.545Z,100107.18
2019-03-21T05:21:26.341Z,100111.02
2019-03-21T05:23:37.151Z,100105.52
2019-03-21T05:25:47.971Z,100109.45
2019-03-21T05:27:58.787Z,100112.05
2019-03-21T05:30:51.262Z,100108.74
2019-03-21T05:33:02.279Z,100107.55
2019-03-21T05:35:13.141Z,100109.16
2019-03-21T05:37:23.937Z,100114.61
2019-03-21T05:39:34.775Z,100115.03
2019-03-21T05:41:45.583Z,100123.17
2019-03-21T05:44:38.101Z,100124.20
2019-03-21T05:46:48.913Z,100126.88
2019-03-21T05:48:59.840Z,100124.20
2019-03-21T05:51:10.638Z,100126.62
2019-03-21T05:53:21.454Z,100122.63
2019-03-21T05:55:32.281Z,100125.88
2019-03-21T05:57:43.177Z,100124.78
2019-03-21T05:59:54.001Z,100126.17
2019-03-21T06:02:05.005Z,100124.08
2019-03-21T06:04:15.809Z,100125.01
2019-03-21T06:07:06.383Z,100125.92
2019-03-21T06:09:58.893Z,100135.41
2019-03-21T06:12:09.715Z,100131.99
2019-03-21T06:14:20.595Z,100130.59
2019-03-21T06:16:37.552Z,100138.58
2019-03-21T06:19:23.938Z,100138.08
2019-03-21T06:22:16.391Z,100137.63
2019-03-21T06:25:06.968Z,100136.04
2019-03-21T06:27:37.675Z,100128.47
2019-03-21T06:29:48.475Z,100133.61
2019-03-21T06:31:59.322Z,100132.27
2019-03-21T06:34:10.127Z,100135.22
2019-03-21T06:36:20.972Z,100133.90
2019-03-21T06:38:31.764Z,100133.91
2019-03-21T06:40:42.605Z,100128.82
2019-03-21T06:42:53.447Z,100126.70
2019-03-21T06:45:48.163Z,100134.78
2019-03-21T06:47:58.677Z,100133.97
2019-03-21T06:50:09.577Z,100128.22
2019-03-21T06:52:20.406Z,100127.05
2019-03-21T06:54:31.211Z,100126.90
2019-03-21T06:56:42.188Z,100130.45
2019-03-21T06:58:53.003Z,100127.44
2019-03-21T07:01:03.838Z,100121.42
2019-03-21T07:03:16.415Z,100118.25
2019-03-21T07:05:27.358Z,100121.46
2019-03-21T07:07:38.281Z,100119.41
2019-03-21T07:09:49.105Z,100124.48
2019-03-21T07:11:59.932Z,100122.65
2019-03-21T07:14:10.777Z,100115.95
2019-03-21T07:16:21.556Z,100117.66
2019-03-21T07:18:32.400Z,100113.78
2019-03-21T07:20:43.220Z,100112.70
2019-03-21T07:22:54.040Z,100110.34
2019-03-21T07:25:46.470Z,100104.58
2019-03-21T07:27:57.317Z,100113.98
2019-03-21T07:30:49.755Z,100111.58
2019-03-21T07:33:00.577Z,100110.94
2019-03-21T07:35:11.467Z,100115.16
2019-03-21T07:37:22.448Z,100108.03
2019-03-21T07:39:33.239Z,100107.92
2019-03-21T07:41:44.034Z,100109.70
2019-03-21T07:43:54.977Z,100114.96
2019-03-21T07:46:05.837Z,100108.48
2019-03-21T07:48:16.611Z,100101.23
2019-03-21T07:50:27.414Z,100102.62
2019-03-21T07:52:38.317Z,100103.17
2019-03-21T07:54:49.134Z,100101.77
2019-03-21T07:57:00.051Z,100098.61
2019-03-21T07:59:10.892Z,100102.66
2019-03-21T08:01:21.738Z,100095.66
2019-03-21T08:03:32.561Z,100096.80
2019-03-21T08:05:43.380Z,100093.47
2019-03-21T08:07:54.178Z,100091.84
2019-03-21T08:10:46.637Z,100092.77
2019-03-21T08:13:17.315Z,100093.81
2019-03-21T08:15:28.151Z,100092.17
2019-03-21T08:17:39.075Z,100095.53
2019-03-21T08:19:49.938Z,100092.59
2019-03-21T08:22:00.750Z,100088.63
2019-03-21T08:24:11.550Z,100091.13
2019-03-21T08:26:22.384Z,100089.85
2019-03-21T08:28:33.277Z,100090.61
2019-03-21T08:31:25.773Z,100093.81
2019-03-21T08:33:36.598Z,100090.52
2019-03-21T08:35:47.445Z,100084.89
2019-03-21T08:37:58.249Z,100083.15
2019-03-21T08:40:09.189Z,100086.52
2019-03-21T08:42:39.872Z,100086.20
2019-03-21T08:44:50.677Z,100084.20
2019-03-21T08:47:01.662Z,100087.51
2019-03-21T08:49:12.487Z,100085.70
2019-03-21T08:51:23.446Z,100087.78
2019-03-21T08:53:34.265Z,100081.19
2019-03-21T08:55:45.105Z,100077.98
2019-03-21T08:57:55.915Z,100079.50
2019-03-21T09:00:48.372Z,100071.56
2019-03-21T09:02:59.162Z,100076.83
2019-03-21T09:08:02.539Z,100076.92
2019-03-21T09:10:13.570Z,100072.44
2019-03-21T09:13:06.024Z,100076.89
2019-03-21T09:15:16.833Z,100075.48
2019-03-21T09:17:27.692Z,100067.32
2019-03-21T09:19:38.502Z,100055.92
2019-03-21T09:21:49.319Z,100058.92
2019-03-21T09:24:00.209Z,100063.54
2019-03-21T09:26:11.026Z,100061.31
2019-03-21T09:28:21.852Z,100059.22
2019-03-21T09:30:32.701Z,100057.91
2019-03-21T09:32:43.614Z,100066.23
2019-03-21T09:34:54.430Z,100057.69
2019-03-21T09:37:05.291Z,100057.93
2019-03-21T09:39:16.151Z,100047.64
2019-03-21T09:41:27.067Z,100047.17
2019-03-21T09:43:37.908Z,100049.60
2019-03-21T09:45:48.714Z,100059.27
2019-03-21T09:47:59.546Z,100061.88
2019-03-21T09:50:51.990Z,100060.89
2019-03-21T09:53:02.807Z,100057.61
2019-03-21T09:55:13.597Z,100052.38
2019-03-21T09:57:24.418Z,100059.43
2019-03-21T09:59:35.221Z,100044.88
2019-03-21T10:01:46.008Z,100077.67
2019-03-21T10:03:56.843Z,100053.69
2019-03-21T10:08:59.876Z,100052.65
2019-03-21T10:11:52.343Z,100056.14
2019-03-21T10:14:44.814Z,100049.97
2019-03-21T10:16:55.623Z,100053.81
2019-03-21T10:19:06.428Z,100041.09
2019-03-21T10:21:17.230Z,100043.62
2019-03-21T10:23:28.055Z,100032.27
2019-03-21T10:25:38.891Z,100047.41
2019-03-21T10:27:49.680Z,100024.56
2019-03-21T10:30:00.525Z,100020.27
2019-03-21T10:32:14.475Z,100019.76
2019-03-21T10:34:24.063Z,100015.78
2019-03-21T10:36:34.880Z,100013.13
2019-03-21T10:38:45.710Z,100006.16
2019-03-21T10:40:56.610Z,100009.69
2019-03-21T10:43:10.314Z,100005.63
2019-03-21T10:45:20.353Z,99997.30
2019-03-21T10:47:31.179Z,99998.52
2019-03-21T10:49:42.019Z,99993.05
2019-03-21T10:51:55.273Z,99989.69
2019-03-21T10:54:05.516Z,99986.91
2019-03-21T10:56:16.344Z,99981.50
2019-03-21T10:58:27.190Z,99978.69
2019-03-21T11:00:38.228Z,99980.22
2019-03-21T11:02:49.037Z,99979.69
2019-03-21T11:04:59.829Z,99980.92
2019-03-21T11:07:10.466Z,99984.16
2019-03-21T11:09:21.335Z,99978.30
2019-03-21T11:11:32.153Z,99979.22
2019-03-21T11:13:42.945Z,99975.16
2019-03-21T11:15:53.796Z,99984.77
2019-03-21T11:18:11.280Z,99982.84
2019-03-21T11:20:41.948Z,99976.29
2019-03-21T11:22:52.817Z,99967.27
2019-03-21T11:25:45.285Z,99963.78
2019-03-21T11:27:56.197Z,99956.39
2019-03-21T11:30:15.585Z,99969.61
2019-03-21T11:34:37.279Z,99965.19
2019-03-21T11:36:48.153Z,99957.95
2019-03-21T11:39:18.824Z,99961.59
2019-03-21T11:41:29.659Z,99954.79
2019-03-21T11:43:40.465Z,99950.06
2019-03-21T11:45:51.371Z,99952.52
2019-03-21T11:48:43.887Z,99958.61
2019-03-21T11:50:54.702Z,99938.22
2019-03-21T11:53:05.503Z,99936.38
2019-03-21T11:55:16.439Z,99940.47
2019-03-21T11:57:27.265Z,99929.67
2019-03-21T11:59:50.756Z,99929.98
2019-03-21T12:01:50.807Z,99930.52
2019-03-21T12:04:01.635Z,99929.52
2019-03-21T12:06:12.447Z,99918.73
2019-03-21T12:08:23.274Z,99911.13
2019-03-21T12:10:34.088Z,99911.34
2019-03-21T12:12:44.923Z,99912.44
2019-03-21T12:14:55.729Z,99912.28
2019-03-21T12:17:06.550Z,99907.05
2019-03-21T12:19:17.386Z,99906.61
2019-03-21T12:21:28.181Z,99910.91
2019-03-21T12:23:39.005Z,99908.89
2019-03-21T12:25:49.795Z,99889.03
2019-03-21T12:28:01.707Z,99890.75
2019-03-21T12:30:33.988Z,99891.59
2019-03-21T12:32:44.790Z,99892.84
2019-03-21T12:34:55.614Z,99882.11
2019-03-21T12:37:06.423Z,99877.34
2019-03-21T12:39:17.399Z,99882.42
2019-03-21T12:41:28.202Z,99880.34
2019-03-21T12:43:39.102Z,99869.71
2019-03-21T12:45:49.915Z,99867.62
2019-03-21T12:48:00.823Z,99865.66
2019-03-21T12:50:11.748Z,99871.80
2019-03-21T12:52:22.551Z,99867.56
2019-03-21T12:54:33.379Z,99863.23
2019-03-21T12:56:44.229Z,99864.16
2019-03-21T12:58:55.045Z,99861.27
2019-03-21T13:01:05.865Z,99861.79
2019-03-21T13:03:16.659Z,99859.48
2019-03-21T13:06:09.131Z,99850.26
2019-03-21T13:08:20.011Z,99846.48
2019-03-21T13:12:49.508Z,99851.11
2019-03-21T13:15:00.375Z,99838.02
2019-03-21T13:17:11.265Z,99838.63
2019-03-21T13:19:22.083Z,99827.28
2019-03-21T13:21:32.916Z,99828.69
2019-03-21T13:23:43.725Z,99831.52
2019-03-21T13:25:54.702Z,99836.38
2019-03-21T13:28:05.722Z,99829.73
2019-03-21T13:30:16.760Z,99825.44
2019-03-21T13:32:27.563Z,99819.73
2019-03-21T13:34:38.384Z,99822.28
2019-03-21T13:36:49.227Z,99825.44
2019-03-21T13:39:19.936Z,99802.30
2019-03-21T13:41:30.787Z,99802.30
2019-03-21T13:43:41.629Z,99805.30
2019-03-21T13:45:52.444Z,99799.70
2019-03-21T13:48:03.396Z,99793.15
2019-03-21T13:50:14.327Z,99798.39
2019-03-21T13:52:25.123Z,99798.14
2019-03-21T13:54:36.095Z,99789.75
2019-03-21T13:56:47.016Z,99791.30
2019-03-21T13:58:57.830Z,99780.45
2019-03-21T14:01:08.706Z,99779.94
2019-03-21T14:03:24.936Z,99779.70
2019-03-21T14:05:32.249Z,99784.91
2019-03-21T14:07:43.098Z,99780.80
2019-03-21T14:09:53.899Z,99775.39
2019-03-21T14:12:04.724Z,99771.65
2019-03-21T14:14:15.561Z,99764.21
2019-03-21T14:16:26.386Z,99766.36
2019-03-21T14:18:37.184Z,99766.83
2019-03-21T14:20:47.995Z,99762.33
2019-03-21T14:22:58.821Z,99757.36
2019-03-21T14:25:29.491Z,99762.52
2019-03-21T14:27:40.339Z,99762.28
2019-03-21T14:30:00.755Z,99755.34
2019-03-21T14:32:03.898Z,99760.86
2019-03-21T14:34:14.714Z,99761.14
2019-03-21T14:36:25.518Z,99757.85
2019-03-21T14:38:36.382Z,99756.73
2019-03-21T14:40:47.204Z,99752.33
2019-03-21T14:42:58.029Z,99747.56
2019-03-21T14:45:50.493Z,99752.23
2019-03-21T14:48:01.302Z,99746.59
2019-03-21T14:50:53.751Z,99744.80
2019-03-21T14:53:04.573Z,99750.16
2019-03-21T14:55:15.407Z,99748.48
2019-03-21T14:57:26.221Z,99746.58
2019-03-21T14:59:37.028Z,99745.44
2019-03-21T15:01:47.848Z,99745.54
2019-03-21T15:03:58.669Z,99738.15
2019-03-21T15:06:09.461Z,99744.05
2019-03-21T15:08:20.283Z,99739.08
2019-03-21T15:10:31.168Z,99740.97
2019-03-21T15:12:41.984Z,99738.72
2019-03-21T15:14:52.822Z,99730.36
2019-03-21T15:17:03.646Z,99735.40
2019-03-21T15:19:14.481Z,99735.33
2019-03-21T15:21:25.306Z,99732.58
2019-03-21T15:23:40.992Z,99736.04
2019-03-21T15:25:48.996Z,99732.19
2019-03-21T15:27:59.832Z,99732.19
2019-03-21T15:30:52.296Z,99733.86
2019-03-21T15:33:03.157Z,99730.95
2019-03-21T15:35:55.602Z,99737.20
2019-03-21T15:38:06.565Z,99738.94
2019-03-21T15:40:17.481Z,99739.24
2019-03-21T15:42:28.308Z,99730.55
2019-03-21T15:44:39.120Z,99730.91
2019-03-21T15:46:49.938Z,99729.41
2019-03-21T15:49:00.760Z,99731.08
2019-03-21T15:51:11.609Z,99727.63
2019-03-21T15:53:22.410Z,99726.48
2019-03-21T15:55:33.375Z,99731.35
2019-03-21T15:57:44.190Z,99732.49
2019-03-21T15:59:55.029Z,99733.60
2019-03-21T16:02:05.851Z,99731.79
2019-03-21T16:04:16.697Z,99730.48
2019-03-21T16:06:27.490Z,99729.73
2019-03-21T16:08:38.298Z,99728.16
2019-03-21T16:10:49.128Z,99731.05
2019-03-21T16:15:52.185Z,99738.80
2019-03-21T16:18:44.641Z,99738.34
2019-03-21T16:20:55.458Z,99738.44
2019-03-21T16:23:06.251Z,99739.38
2019-03-21T16:25:17.083Z,99739.11
2019-03-21T16:27:27.898Z,99741.33
2019-03-21T16:29:38.744Z,99742.80
2019-03-21T16:31:49.581Z,99742.06
2019-03-21T16:34:00.374Z,99737.92
2019-03-21T16:36:11.314Z,99738.77
2019-03-21T16:38:22.155Z,99748.63
2019-03-21T16:40:33.003Z,99746.20
2019-03-21T16:42:43.812Z,99748.16
2019-03-21T16:44:54.618Z,99745.44
2019-03-21T16:47:05.543Z,99743.36
2019-03-21T16:49:16.332Z,99747.41
2019-03-21T16:51:27.162Z,99750.08
2019-03-21T16:53:38.076Z,99748.19
2019-03-21T16:55:48.896Z,99754.48
2019-03-21T16:57:59.716Z,99747.67
2019-03-21T17:00:30.380Z,99751.92
2019-03-21T17:02:41.186Z,99757.41
2019-03-21T17:07:44.297Z,99747.20
2019-03-21T17:09:57.838Z,99751.91
2019-03-21T17:12:07.904Z,99753.37
2019-03-21T17:14:18.736Z,99755.92
2019-03-21T17:16:29.635Z,99754.41
2019-03-21T17:18:40.590Z,99756.45
2019-03-21T17:20:51.453Z,99750.48
2019-03-21T17:23:02.390Z,99751.19
2019-03-21T17:25:54.816Z,99749.05
2019-03-21T17:28:05.695Z,99748.89
2019-03-21T17:30:16.699Z,99749.19
2019-03-21T17:32:27.618Z,99751.14
2019-03-21T17:34:38.433Z,99754.30
2019-03-21T17:36:49.226Z,99754.39
2019-03-21T17:39:00.069Z,99756.23
2019-03-21T17:41:10.889Z,99761.55
2019-03-21T17:43:21.719Z,99763.81
2019-03-21T17:45:32.651Z,99763.11
2019-03-21T17:47:43.523Z,99767.76
2019-03-21T17:49:54.309Z,99770.77
2019-03-21T17:52:05.137Z,99764.17
2019-03-21T17:54:15.967Z,99768.45
2019-03-21T17:56:26.775Z,99768.20
2019-03-21T17:58:37.607Z,99773.17
2019-03-21T18:00:48.416Z,99774.27
2019-03-21T18:02:59.247Z,99774.48
2019-03-21T18:05:10.044Z,99778.64
2019-03-21T18:07:20.886Z,99780.02
2019-03-21T18:09:31.706Z,99780.64
2019-03-21T18:11:42.560Z,99789.48
2019-03-21T18:13:53.363Z,99793.92
2019-03-21T18:16:04.282Z,99798.44
2019-03-21T18:18:15.114Z,99797.86
2019-03-21T18:20:26.152Z,99798.66
2019-03-21T18:22:36.944Z,99801.41
2019-03-21T18:24:53.739Z,99803.84
2019-03-21T18:27:00.534Z,99798.44
2019-03-21T18:29:11.336Z,99808.33
2019-03-21T18:31:22.188Z,99811.50
2019-03-21T18:33:32.991Z,99814.06
2019-03-21T18:35:43.833Z,99810.44
2019-03-21T18:37:54.659Z,99821.38
2019-03-21T18:40:27.271Z,99821.40
2019-03-21T18:42:38.071Z,99825.07
2019-03-21T18:44:50.525Z,99831.50
2019-03-21T18:47:01.649Z,99832.50
2019-03-21T18:49:12.621Z,99830.55
2019-03-21T18:51:23.447Z,99839.60
2019-03-21T18:53:34.254Z,99834.78
2019-03-21T18:55:45.212Z,99833.03
2019-03-21T18:57:56.018Z,99838.53
2019-03-21T19:00:26.724Z,99830.83
2019-03-21T19:02:37.517Z,99832.28
2019-03-21T19:04:48.323Z,99836.50
2019-03-21T19:06:59.276Z,99834.16
2019-03-21T19:09:10.170Z,99834.16
2019-03-21T19:11:21.006Z,99836.14
2019-03-21T19:13:31.796Z,99834.77
2019-03-21T19:15:42.781Z,99827.63
2019-03-21T19:17:53.636Z,99824.70
2019-03-21T19:20:46.125Z,99833.11
2019-03-21T19:22:56.962Z,99831.35
2019-03-21T19:25:49.504Z,99828.28
2019-03-21T19:28:00.329Z,99836.61
2019-03-21T19:30:52.817Z,99841.77
2019-03-21T19:33:03.741Z,99836.73
2019-03-21T19:35:14.684Z,99842.66
2019-03-21T19:37:25.568Z,99840.56
2019-03-21T19:39:36.381Z,99845.37
2019-03-21T19:41:47.227Z,99841.94
2019-03-21T19:43:58.034Z,99840.34
2019-03-21T19:46:08.888Z,99842.91
2019-03-21T19:48:19.714Z,99844.27
2019-03-21T19:50:30.535Z,99847.51
2019-03-21T19:52:41.356Z,99846.48
2019-03-21T19:54:52.171Z,99846.73
2019-03-21T19:57:03.151Z,99848.95
2019-03-21T19:59:13.989Z,99850.69
2019-03-21T20:01:24.775Z,99846.10
2019-03-21T20:03:35.634Z,99847.86
2019-03-21T20:05:46.444Z,99851.41
2019-03-21T20:07:57.303Z,99854.96
2019-03-21T20:10:49.759Z,99854.52
2019-03-21T20:13:00.600Z,99855.84
2019-03-21T20:15:53.061Z,99853.83
2019-03-21T20:18:04.038Z,99849.16
2019-03-21T20:20:56.489Z,99849.69
2019-03-21T20:23:07.327Z,99852.38
2019-03-21T20:25:18.228Z,99855.27
2019-03-21T20:27:29.055Z,99852.74
2019-03-21T20:29:39.898Z,99848.80
2019-03-21T20:31:50.860Z,99854.81
2019-03-21T20:34:01.694Z,99854.88
2019-03-21T20:36:12.494Z,99857.91
2019-03-21T20:38:23.383Z,99854.93
2019-03-21T20:40:34.217Z,99863.42
2019-03-21T20:42:45.230Z,99854.02
2019-03-21T20:44:56.161Z,99851.67
2019-03-21T20:47:06.999Z,99851.84
2019-03-21T20:49:17.826Z,99839.98
2019-03-21T20:51:28.741Z,99847.84
2019-03-21T20:53:39.544Z,99853.98
2019-03-21T20:55:53.945Z,99854.58
2019-03-21T20:58:03.204Z,99857.22
2019-03-21T21:00:55.697Z,99855.08
2019-03-21T21:03:06.513Z,99859.36
2019-03-21T21:05:17.455Z,99864.52
2019-03-21T21:07:28.284Z,99860.30
2019-03-21T21:09:39.106Z,99862.55
2019-03-21T21:11:49.959Z,99855.73
2019-03-21T21:14:00.760Z,99857.13
2019-03-21T21:16:11.608Z,99851.23
2019-03-21T21:18:22.421Z,99850.44
2019-03-21T21:20:33.237Z,99856.28
2019-03-21T21:22:44.065Z,99853.94
2019-03-21T21:24:54.907Z,99855.38
2019-03-21T21:27:05.737Z,99859.38
2019-03-21T21:29:16.566Z,99864.94
2019-03-21T21:31:27.374Z,99860.58
2019-03-21T21:33:38.192Z,99863.55
2019-03-21T21:35:48.999Z,99862.31
2019-03-21T21:37:59.862Z,99864.45
2019-03-21T21:40:52.408Z,99863.59
2019-03-21T21:43:03.527Z,99865.87
2019-03-21T21:45:55.983Z,99865.56
2019-03-21T21:48:06.833Z,99863.46
2019-03-21T21:50:17.676Z,99869.55
2019-03-21T21:52:28.521Z,99861.90
2019-03-21T21:54:39.334Z,99862.38
2019-03-21T21:56:50.139Z,99863.44
2019-03-21T21:59:00.960Z,99858.40
2019-03-21T22:01:11.803Z,99862.83
2019-03-21T22:03:22.637Z,99865.11
2019-03-21T22:05:33.427Z,99861.77
2019-03-21T22:07:44.415Z,99863.59
2019-03-21T22:09:55.387Z,99862.31
2019-03-21T22:12:06.273Z,99859.84
2019-03-21T22:14:17.180Z,99865.98
2019-03-21T22:16:28.159Z,99858.76
2019-03-21T22:18:39.408Z,99863.91
2019-03-21T22:20:50.459Z,99860.92
2019-03-21T22:23:01.295Z,99861.49
2019-03-21T22:25:53.765Z,99854.86
2019-03-21T22:28:04.628Z,99860.09
2019-03-21T22:30:57.110Z,99864.45
2019-03-21T22:33:08.036Z,99860.94
2019-03-21T22:35:38.730Z,99861.23
2019-03-21T22:37:49.553Z,99861.23
2019-03-21T22:40:00.604Z,99853.05
2019-03-21T22:42:11.407Z,99855.59
2019-03-21T22:44:22.237Z,99856.87
2019-03-21T22:46:33.068Z,99853.48
2019-03-21T22:48:43.901Z,99852.25
2019-03-21T22:50:54.690Z,99852.31
2019-03-21T22:53:05.497Z,99846.81
2019-03-21T22:55:16.348Z,99849.50
2019-03-21T22:57:27.162Z,99842.73
2019-03-21T22:59:37.996Z,99847.49
2019-03-21T23:01:48.788Z,99841.06
2019-03-21T23:03:59.720Z,99841.89
2019-03-21T23:06:10.529Z,99842.70
2019-03-21T23:08:21.321Z,99840.52
2019-03-21T23:10:32.158Z,99840.02
2019-03-21T23:12:43.054Z,99839.50
2019-03-21T23:14:53.994Z,99836.87
2019-03-21T23:17:04.765Z,99837.68
2019-03-21T23:19:15.614Z,99839.81
2019-03-21T23:21:26.421Z,99833.88
2019-03-21T23:23:37.296Z,99834.02
2019-03-21T23:25:48.117Z,99839.75
2019-03-21T23:27:58.906Z,99841.58
2019-03-21T23:30:33.417Z,99837.45
2019-03-21T23:32:44.302Z,99842.31
2019-03-21T23:34:55.113Z,99841.09
2019-03-21T23:37:05.924Z,99838.99
2019-03-21T23:39:16.762Z,99839.52
2019-03-21T23:41:27.573Z,99831.80
2019-03-21T23:43:38.389Z,99834.78
2019-03-21T23:45:49.219Z,99830.50
2019-03-21T23:48:00.037Z,99837.76
2019-03-21T23:50:52.491Z,99835.57
2019-03-21T23:53:03.328Z,99833.83
2019-03-21T23:55:14.152Z,99839.78
2019-03-21T23:57:25.083Z,99830.36
2019-03-21T23:59:35.889Z,99838.45
